Terminal Aerodrome Forecast
Issued by NWS

Home | Current Version | Previous Version | Text Only | Print | Product List | Glossary On
Versions: 1 2 3 4 5 6 7 8 9 10 11 12 13 14 15 16 17 18 19 20 21 22 23 24 25 26 27 28 29 30
000
FTUS45 KGJT 280528
TAFMTJ
TAF
KMTJ 280528Z 2806/2906 14007KT P6SM VCSH SCT090 OVC140
     FM281500 00000KT P6SM VCSH SCT080 OVC120
     FM282000 32006KT P6SM VCSH BKN070 OVC120
     FM290200 14008KT P6SM SCT070 BKN120=

USA.gov is the U.S. government's official web portal to all federal, state and local government web resources and services.